createdAt,value
2022-12-03T00:00:30.078Z,43.60
2022-12-03T00:02:56.523Z,46.60
2022-12-03T00:05:23.216Z,48.00
2022-12-03T00:07:49.758Z,52.75
2022-12-03T00:10:16.370Z,53.60
2022-12-03T00:12:42.882Z,51.00
2022-12-03T00:15:09.798Z,49.75
2022-12-03T00:17:36.440Z,44.25
2022-12-03T00:20:03.491Z,45.50
2022-12-03T00:22:31.109Z,45.00
2022-12-03T00:24:57.685Z,44.75
2022-12-03T00:27:24.135Z,43.00
2022-12-03T00:29:50.636Z,48.40
2022-12-03T00:32:17.212Z,47.00
2022-12-03T00:34:43.902Z,48.20
2022-12-03T00:37:10.404Z,47.75
2022-12-03T00:39:36.846Z,43.60
2022-12-03T00:42:03.339Z,43.50
2022-12-03T00:44:29.871Z,50.40
2022-12-03T00:46:56.348Z,47.00
2022-12-03T00:49:22.866Z,54.60
2022-12-03T00:51:49.568Z,54.00
2022-12-03T00:54:16.103Z,50.50
2022-12-03T00:56:42.560Z,52.00
2022-12-03T00:59:09.035Z,47.00
2022-12-03T01:01:35.568Z,46.75
2022-12-03T01:04:02.058Z,49.00
2022-12-03T01:06:28.513Z,51.60
2022-12-03T01:08:54.993Z,47.00
2022-12-03T01:11:39.395Z,45.50
2022-12-03T01:14:06.541Z,49.00
2022-12-03T01:16:33.289Z,46.50
2022-12-03T01:18:59.879Z,51.40
2022-12-03T01:21:26.345Z,49.00
2022-12-03T01:23:52.736Z,48.50
2022-12-03T01:26:19.289Z,46.60
2022-12-03T01:28:45.885Z,48.00
2022-12-03T01:31:30.904Z,42.00
2022-12-03T01:33:57.508Z,40.20
2022-12-03T01:36:23.979Z,43.50
2022-12-03T01:38:50.406Z,38.20
2022-12-03T01:41:17.787Z,40.00
2022-12-03T01:43:45.084Z,36.00
2022-12-03T01:46:16.558Z,40.60
2022-12-03T01:48:43.576Z,36.20
2022-12-03T01:51:10.033Z,42.75
2022-12-03T01:53:36.530Z,47.75
2022-12-03T01:56:03.123Z,41.25
2022-12-03T01:58:29.877Z,42.50
2022-12-03T02:01:01.839Z,46.80
2022-12-03T02:03:28.556Z,47.50
2022-12-03T02:05:55.060Z,49.00
2022-12-03T02:08:35.148Z,50.60
2022-12-03T02:11:03.141Z,52.00
2022-12-03T02:13:29.637Z,58.20
2022-12-03T02:15:56.319Z,47.00
2022-12-03T02:18:23.004Z,43.00
2022-12-03T02:21:04.571Z,45.20
2022-12-03T02:23:31.020Z,35.67
2022-12-03T02:25:57.540Z,42.00
2022-12-03T02:28:23.948Z,44.00
2022-12-03T02:30:50.459Z,40.00
2022-12-03T02:33:17.103Z,38.50
2022-12-03T02:35:44.003Z,36.50
2022-12-03T02:38:16.414Z,32.80
2022-12-03T02:40:44.023Z,27.80
2022-12-03T02:43:11.732Z,23.00
2022-12-03T02:45:39.619Z,14.40
2022-12-03T02:48:08.710Z,17.00
2022-12-03T02:50:37.461Z,13.20
2022-12-03T02:53:07.216Z,13.80
2022-12-03T02:55:37.082Z,12.75
2022-12-03T02:58:04.977Z,11.40
2022-12-03T03:00:32.051Z,10.20
2022-12-03T03:02:58.583Z,11.00
2022-12-03T03:05:25.134Z,15.00
2022-12-03T03:07:51.624Z,13.00
2022-12-03T03:10:20.915Z,10.00
2022-12-03T03:12:47.432Z,9.60
2022-12-03T03:15:14.209Z,9.50
2022-12-03T03:17:41.118Z,13.00
2022-12-03T03:20:09.121Z,11.80
2022-12-03T03:22:36.905Z,10.00
2022-12-03T03:25:04.432Z,13.40
2022-12-03T03:27:31.007Z,10.00
2022-12-03T03:29:58.289Z,12.00
2022-12-03T03:32:25.709Z,15.40
2022-12-03T03:34:52.738Z,12.50
2022-12-03T03:37:19.441Z,16.00
2022-12-03T03:39:45.874Z,21.75
2022-12-03T03:42:12.354Z,15.00
2022-12-03T03:44:38.973Z,12.80
2022-12-03T03:47:05.602Z,17.75
2022-12-03T03:49:32.210Z,14.80
2022-12-03T03:51:58.800Z,15.00
2022-12-03T03:54:25.710Z,18.50
2022-12-03T03:56:52.289Z,28.00
2022-12-03T03:59:19.011Z,25.20
2022-12-03T04:01:46.326Z,29.00
2022-12-03T04:04:20.034Z,27.20
2022-12-03T04:06:46.762Z,26.00
2022-12-03T04:09:13.272Z,23.00
2022-12-03T04:11:58.454Z,33.00
2022-12-03T04:14:24.942Z,32.80
2022-12-03T04:16:51.426Z,29.60
2022-12-03T04:19:18.270Z,36.80
2022-12-03T04:22:03.763Z,37.75
2022-12-03T04:24:30.192Z,33.00
2022-12-03T04:27:15.205Z,27.60
2022-12-03T04:29:41.618Z,38.50
2022-12-03T04:32:26.821Z,39.00
2022-12-03T04:35:11.656Z,36.50
2022-12-03T04:37:38.168Z,37.00
2022-12-03T04:40:24.796Z,38.60
2022-12-03T04:42:51.225Z,29.50
2022-12-03T04:45:17.661Z,32.60
2022-12-03T04:47:44.128Z,39.75
2022-12-03T04:50:10.897Z,38.50
2022-12-03T04:52:37.347Z,36.67
2022-12-03T04:55:03.930Z,37.50
2022-12-03T04:57:30.384Z,37.50
2022-12-03T04:59:56.838Z,39.75
2022-12-03T05:02:23.299Z,37.40
2022-12-03T05:04:49.812Z,40.00
2022-12-03T05:07:16.302Z,42.80
2022-12-03T05:09:42.780Z,39.00
2022-12-03T05:12:09.183Z,37.25
2022-12-03T05:14:35.644Z,44.20
2022-12-03T05:17:02.144Z,49.50
2022-12-03T05:19:47.045Z,39.00
2022-12-03T05:22:13.504Z,28.50
2022-12-03T05:24:39.951Z,34.25
2022-12-03T05:27:09.517Z,34.20
2022-12-03T05:29:35.944Z,21.40
2022-12-03T05:32:03.725Z,26.80
2022-12-03T05:34:30.215Z,22.00
2022-12-03T05:36:56.622Z,26.50
2022-12-03T05:39:23.099Z,23.50
2022-12-03T05:42:07.929Z,27.50
2022-12-03T05:44:34.451Z,24.00
2022-12-03T05:47:00.909Z,28.75
2022-12-03T05:49:27.339Z,27.50
2022-12-03T05:51:58.258Z,29.00
2022-12-03T05:54:25.320Z,29.25
2022-12-03T05:56:51.771Z,35.00
2022-12-03T05:59:18.209Z,27.50
2022-12-03T06:01:44.710Z,24.75
2022-12-03T06:04:11.176Z,23.25
2022-12-03T06:06:37.652Z,29.40
2022-12-03T06:09:04.313Z,25.00
2022-12-03T06:11:34.019Z,27.60
2022-12-03T06:14:00.851Z,28.60
2022-12-03T06:16:27.348Z,29.75
2022-12-03T06:18:53.842Z,27.60
2022-12-03T06:21:20.377Z,23.25
2022-12-03T06:23:46.807Z,23.80
2022-12-03T06:26:13.777Z,35.75
2022-12-03T06:28:41.213Z,24.00
2022-12-03T06:31:07.699Z,18.00
2022-12-03T06:33:34.181Z,15.20
2022-12-03T06:36:00.604Z,14.00
2022-12-03T06:38:27.027Z,14.00
2022-12-03T06:40:53.432Z,10.20
2022-12-03T06:43:19.820Z,12.40
2022-12-03T06:45:47.897Z,12.00
2022-12-03T06:48:15.041Z,13.60
2022-12-03T06:50:41.441Z,12.00
2022-12-03T06:53:07.843Z,13.40
2022-12-03T06:55:34.324Z,13.60
2022-12-03T06:58:00.757Z,16.00
2022-12-03T07:00:27.243Z,18.00
2022-12-03T07:02:53.769Z,20.00
2022-12-03T07:05:20.305Z,17.75
2022-12-03T07:07:52.112Z,19.40
2022-12-03T07:10:19.177Z,40.50
2022-12-03T07:12:45.612Z,26.20
2022-12-03T07:15:12.181Z,27.50
2022-12-03T07:17:38.826Z,27.40
2022-12-03T07:20:05.952Z,28.25
2022-12-03T07:22:32.568Z,23.50
2022-12-03T07:24:59.076Z,28.60
2022-12-03T07:27:25.634Z,26.80
2022-12-03T07:29:52.081Z,24.20
2022-12-03T07:32:18.664Z,42.00
2022-12-03T07:34:45.132Z,41.75
2022-12-03T07:37:11.616Z,49.20
2022-12-03T07:39:38.033Z,47.80
2022-12-03T07:42:04.864Z,52.50
2022-12-03T07:44:33.980Z,48.00
2022-12-03T07:47:00.548Z,51.40
2022-12-03T07:49:27.130Z,48.25
2022-12-03T07:51:54.518Z,49.50
2022-12-03T07:54:21.862Z,44.20
2022-12-03T07:56:48.293Z,50.20
2022-12-03T07:59:15.159Z,47.00
2022-12-03T08:01:41.643Z,52.00
2022-12-03T08:04:08.439Z,42.00
2022-12-03T08:06:34.857Z,36.00
2022-12-03T08:09:01.261Z,32.50
2022-12-03T08:11:29.148Z,32.50
2022-12-03T08:13:57.427Z,20.40
2022-12-03T08:16:24.026Z,32.40
2022-12-03T08:18:51.001Z,32.75
2022-12-03T08:21:18.612Z,26.00
2022-12-03T08:23:45.202Z,20.40
2022-12-03T08:26:20.987Z,26.80
2022-12-03T08:28:47.506Z,28.00
2022-12-03T08:31:20.080Z,31.00
2022-12-03T08:33:54.409Z,30.00
2022-12-03T08:36:20.879Z,30.00
2022-12-03T08:38:57.334Z,23.60
2022-12-03T08:41:42.687Z,27.50
2022-12-03T08:44:14.145Z,27.80
2022-12-03T08:46:40.596Z,23.00
2022-12-03T08:49:07.103Z,33.00
2022-12-03T08:51:33.568Z,39.80
2022-12-03T08:54:04.209Z,33.50
2022-12-03T08:56:30.889Z,34.20
2022-12-03T08:59:03.164Z,42.00
2022-12-03T09:01:31.312Z,33.50
2022-12-03T09:04:02.391Z,36.25
2022-12-03T09:06:28.886Z,31.20
2022-12-03T09:08:55.315Z,35.50
2022-12-03T09:11:21.725Z,25.80
2022-12-03T09:13:49.453Z,31.00
2022-12-03T09:16:15.959Z,27.00
2022-12-03T09:18:42.721Z,27.00
2022-12-03T09:21:09.122Z,29.00
2022-12-03T09:23:35.552Z,32.25
2022-12-03T09:26:01.989Z,27.67
2022-12-03T09:28:28.511Z,29.80
2022-12-03T09:30:54.965Z,25.00
2022-12-03T09:33:21.421Z,27.20
2022-12-03T09:35:47.869Z,28.60
2022-12-03T09:38:14.356Z,28.25
2022-12-03T09:40:41.044Z,27.00
2022-12-03T09:43:07.608Z,30.00
2022-12-03T09:45:34.258Z,29.00
2022-12-03T09:48:02.727Z,30.00
2022-12-03T09:50:30.560Z,26.50
2022-12-03T09:52:59.006Z,38.60
2022-12-03T09:55:27.006Z,35.50
2022-12-03T09:57:54.012Z,36.50
2022-12-03T10:00:23.210Z,41.00
2022-12-03T10:02:51.134Z,30.80
2022-12-03T10:05:19.269Z,22.60
2022-12-03T10:07:46.118Z,23.00
2022-12-03T10:10:20.688Z,26.40
2022-12-03T10:12:47.601Z,26.60
2022-12-03T10:15:15.115Z,22.75
2022-12-03T10:17:41.965Z,31.40
2022-12-03T10:20:11.315Z,24.80
2022-12-03T10:22:37.846Z,42.00
2022-12-03T10:25:06.697Z,47.25
2022-12-03T10:27:33.192Z,34.25
2022-12-03T10:30:00.685Z,21.50
2022-12-03T10:32:38.458Z,60.75
2022-12-03T10:35:09.551Z,61.00
2022-12-03T10:37:36.060Z,27.67
2022-12-03T10:40:02.513Z,23.00
2022-12-03T10:42:30.663Z,25.00
2022-12-03T10:45:09.432Z,9.50
2022-12-03T10:47:36.079Z,49.75
2022-12-03T10:50:04.092Z,28.25
2022-12-03T10:52:30.570Z,11.00
2022-12-03T10:54:57.107Z,7.50
2022-12-03T10:57:23.858Z,7.40
2022-12-03T10:59:50.358Z,3.00
2022-12-03T11:02:19.864Z,6.00
2022-12-03T11:04:46.423Z,6.25
2022-12-03T11:07:15.485Z,5.75
2022-12-03T11:09:45.862Z,5.25
2022-12-03T11:12:18.625Z,6.40
2022-12-03T11:14:51.760Z,5.75
2022-12-03T11:17:37.419Z,7.75
2022-12-03T11:20:04.330Z,6.60
2022-12-03T11:22:41.446Z,9.00
2022-12-03T11:25:29.239Z,6.40
2022-12-03T11:28:13.947Z,17.80
2022-12-03T11:30:50.092Z,13.80
2022-12-03T11:33:24.789Z,6.00
2022-12-03T11:36:03.532Z,7.00
2022-12-03T11:38:52.939Z,2.00
2022-12-03T11:41:20.261Z,1.25
2022-12-03T11:43:52.506Z,5.00
2022-12-03T11:46:20.740Z,4.00
2022-12-03T11:48:48.209Z,3.60
2022-12-03T11:51:19.605Z,1.33
2022-12-03T11:53:46.209Z,27.25
2022-12-03T11:56:20.181Z,20.40
2022-12-03T11:58:47.437Z,21.40
2022-12-03T12:01:15.252Z,8.50
2022-12-03T12:03:49.602Z,7.60
2022-12-03T12:06:18.128Z,7.80
2022-12-03T12:08:50.732Z,10.00
2022-12-03T12:11:25.248Z,4.00
2022-12-03T12:13:54.468Z,18.40
2022-12-03T12:16:50.757Z,29.00
2022-12-03T12:19:36.123Z,31.00
2022-12-03T12:22:16.569Z,12.50
2022-12-03T12:24:47.092Z,9.00
2022-12-03T12:27:17.985Z,10.00
2022-12-03T12:29:46.486Z,14.80
2022-12-03T12:32:13.238Z,12.00
2022-12-03T12:34:40.786Z,23.00
2022-12-03T12:37:11.259Z,30.40
2022-12-03T12:39:38.829Z,8.80
2022-12-03T12:42:18.682Z,30.50
2022-12-03T12:44:45.082Z,7.00
2022-12-03T12:47:12.622Z,8.00
2022-12-03T12:49:39.104Z,9.80
2022-12-03T12:52:05.564Z,2.00
2022-12-03T12:54:32.018Z,4.40
2022-12-03T12:56:58.427Z,3.60
2022-12-03T12:59:25.886Z,2.50
2022-12-03T13:01:52.467Z,2.00
2022-12-03T13:04:20.374Z,5.00
2022-12-03T13:06:47.454Z,2.60
2022-12-03T13:09:16.943Z,4.75
2022-12-03T13:11:45.880Z,2.00
2022-12-03T13:14:20.217Z,2.50
2022-12-03T13:16:47.767Z,1.60
2022-12-03T13:19:24.826Z,4.25
2022-12-03T13:21:52.710Z,1.60
2022-12-03T13:24:38.976Z,3.40
2022-12-03T13:27:20.732Z,2.00
2022-12-03T13:29:47.134Z,2.50
2022-12-03T13:32:16.476Z,5.00
2022-12-03T13:34:44.625Z,3.00
2022-12-03T13:37:20.984Z,3.00
2022-12-03T13:39:51.960Z,3.00
2022-12-03T13:42:39.663Z,2.25
2022-12-03T13:45:26.593Z,4.00
2022-12-03T13:47:57.484Z,6.75
2022-12-03T13:50:37.477Z,11.25
2022-12-03T13:53:14.070Z,4.75
2022-12-03T13:55:43.777Z,10.80
2022-12-03T13:58:10.267Z,4.00
2022-12-03T14:00:36.721Z,4.00
2022-12-03T14:03:03.515Z,4.50
2022-12-03T14:05:29.966Z,12.50
2022-12-03T14:08:02.280Z,4.80
2022-12-03T14:10:29.515Z,5.00
2022-12-03T14:12:56.509Z,5.00
2022-12-03T14:15:23.119Z,6.00
2022-12-03T14:17:49.579Z,3.50
2022-12-03T14:20:16.228Z,3.20
2022-12-03T14:22:42.628Z,6.00
2022-12-03T14:25:09.623Z,3.00
2022-12-03T14:27:36.481Z,4.00
2022-12-03T14:30:03.648Z,5.33
2022-12-03T14:32:30.059Z,6.60
2022-12-03T14:34:56.868Z,4.00
2022-12-03T14:37:23.267Z,7.00
2022-12-03T14:39:49.786Z,2.00
2022-12-03T14:42:17.018Z,7.40
2022-12-03T14:44:45.011Z,14.00
2022-12-03T14:47:11.689Z,9.00
2022-12-03T14:49:38.139Z,4.00
2022-12-03T14:52:08.499Z,17.25
2022-12-03T14:54:39.227Z,8.75
2022-12-03T14:57:05.743Z,10.50
2022-12-03T14:59:32.178Z,7.40
2022-12-03T15:01:58.712Z,11.67
2022-12-03T15:04:25.244Z,6.80
2022-12-03T15:06:51.687Z,11.00
2022-12-03T15:09:18.198Z,8.40
2022-12-03T15:11:46.316Z,7.00
2022-12-03T15:14:13.270Z,12.60
2022-12-03T15:16:39.826Z,7.80
2022-12-03T15:19:06.281Z,38.75
2022-12-03T15:21:34.958Z,13.60
2022-12-03T15:24:02.229Z,13.00
2022-12-03T15:26:29.119Z,8.00
2022-12-03T15:28:55.596Z,9.80
2022-12-03T15:31:22.061Z,8.00
2022-12-03T15:33:48.641Z,8.40
2022-12-03T15:36:15.221Z,25.20
2022-12-03T15:38:41.735Z,43.75
2022-12-03T15:41:28.870Z,29.00
2022-12-03T15:43:56.498Z,8.80
2022-12-03T15:46:23.265Z,11.00
2022-12-03T15:48:49.817Z,111.20
2022-12-03T15:51:16.261Z,105.80
2022-12-03T15:53:42.858Z,67.80
2022-12-03T15:56:09.536Z,64.20
2022-12-03T15:58:36.014Z,32.40
2022-12-03T16:01:02.539Z,124.80
2022-12-03T16:03:29.133Z,52.00
2022-12-03T16:05:55.617Z,95.50
2022-12-03T16:08:22.194Z,90.20
2022-12-03T16:10:48.830Z,75.00
2022-12-03T16:13:15.410Z,84.50
2022-12-03T16:15:41.938Z,33.80
2022-12-03T16:18:08.420Z,60.00
2022-12-03T16:20:34.915Z,43.80
2022-12-03T16:23:01.458Z,42.50
2022-12-03T16:25:27.867Z,24.00
2022-12-03T16:27:54.412Z,42.00
2022-12-03T16:30:20.854Z,73.50
2022-12-03T16:32:47.275Z,186.00
2022-12-03T16:35:13.749Z,35.00
2022-12-03T16:37:40.504Z,80.60
2022-12-03T16:40:07.274Z,300.00
2022-12-03T16:42:33.828Z,181.50
2022-12-03T16:45:03.226Z,346.75
2022-12-03T16:47:33.790Z,132.00
2022-12-03T16:50:01.378Z,76.50
2022-12-03T16:52:27.983Z,95.50
2022-12-03T16:54:54.436Z,77.60
2022-12-03T16:57:20.829Z,166.75
2022-12-03T16:59:47.418Z,219.60
2022-12-03T17:02:13.990Z,100.00
2022-12-03T17:04:40.580Z,86.25
2022-12-03T17:07:07.017Z,330.00
2022-12-03T17:09:33.543Z,54.20
2022-12-03T17:11:59.976Z,78.00
2022-12-03T17:14:32.871Z,183.50
2022-12-03T17:16:59.790Z,59.50
2022-12-03T17:19:26.216Z,76.40
2022-12-03T17:21:54.126Z,35.40
2022-12-03T17:24:21.617Z,177.25
2022-12-03T17:26:48.137Z,115.00
2022-12-03T17:29:14.621Z,71.00
2022-12-03T17:31:42.470Z,24.50
2022-12-03T17:34:09.518Z,13.40
2022-12-03T17:36:35.950Z,179.75
2022-12-03T17:39:02.384Z,20.00
2022-12-03T17:41:28.838Z,50.00
2022-12-03T17:43:55.292Z,76.00
2022-12-03T17:46:21.792Z,147.25
2022-12-03T17:48:48.280Z,29.75
2022-12-03T17:51:14.787Z,41.80
2022-12-03T17:53:41.272Z,36.25
2022-12-03T17:56:07.732Z,79.50
2022-12-03T17:58:34.818Z,139.50
2022-12-03T18:01:03.144Z,129.00
2022-12-03T18:03:30.205Z,627.80
2022-12-03T18:05:56.685Z,245.60
2022-12-03T18:08:23.358Z,406.00
2022-12-03T18:10:50.280Z,737.80
2022-12-03T18:13:16.806Z,626.20
2022-12-03T18:15:43.425Z,77.75
2022-12-03T18:18:09.996Z,223.50
2022-12-03T18:20:36.774Z,245.00
2022-12-03T18:23:03.684Z,47.00
2022-12-03T18:25:30.573Z,56.00
2022-12-03T18:27:57.298Z,231.80
2022-12-03T18:30:23.798Z,163.25
2022-12-03T18:32:50.737Z,73.00
2022-12-03T18:35:17.262Z,97.50
2022-12-03T18:37:43.764Z,213.20
2022-12-03T18:40:16.852Z,56.25
2022-12-03T18:42:48.163Z,120.00
2022-12-03T18:45:15.063Z,63.25
2022-12-03T18:47:42.132Z,89.75
2022-12-03T18:50:09.704Z,99.60
2022-12-03T18:52:36.206Z,67.25
2022-12-03T18:55:02.705Z,60.00
2022-12-03T18:57:29.108Z,99.40
2022-12-03T18:59:55.857Z,117.00
2022-12-03T19:05:09.339Z,70.33
2022-12-03T19:07:35.998Z,76.25
2022-12-03T19:10:03.186Z,40.50
2022-12-03T19:12:31.136Z,39.00
2022-12-03T19:14:57.605Z,59.25
2022-12-03T19:17:24.058Z,45.80
2022-12-03T19:19:50.593Z,66.75
2022-12-03T19:22:17.009Z,49.75
2022-12-03T19:24:44.056Z,92.25
2022-12-03T19:27:10.612Z,58.25
2022-12-03T19:29:37.108Z,65.50
2022-12-03T19:32:03.836Z,58.00
2022-12-03T19:34:30.374Z,118.25
2022-12-03T19:36:56.870Z,40.40
2022-12-03T19:39:24.051Z,41.00
2022-12-03T19:41:50.725Z,65.75
2022-12-03T19:44:18.342Z,76.50
2022-12-03T19:46:44.983Z,20.60
2022-12-03T19:49:11.603Z,112.00
2022-12-03T19:51:38.181Z,22.50
2022-12-03T19:54:05.592Z,119.00
2022-12-03T19:56:32.078Z,62.75
2022-12-03T19:58:58.551Z,46.75
2022-12-03T20:01:26.088Z,75.25
2022-12-03T20:03:54.271Z,40.00
2022-12-03T20:06:23.201Z,34.00
2022-12-03T20:08:50.114Z,53.00
2022-12-03T20:11:18.042Z,69.50
2022-12-03T20:13:44.978Z,72.50
2022-12-03T20:16:13.019Z,62.00
2022-12-03T20:18:43.643Z,68.40
2022-12-03T20:21:11.092Z,34.00
2022-12-03T20:23:38.173Z,76.20
2022-12-03T20:26:11.994Z,56.25
2022-12-03T20:28:38.560Z,60.00
2022-12-03T20:31:09.664Z,14.80
2022-12-03T20:33:36.240Z,14.00
2022-12-03T20:36:03.215Z,27.00
2022-12-03T20:38:30.227Z,14.00
2022-12-03T20:41:00.274Z,12.00
2022-12-03T20:43:26.752Z,4.40
2022-12-03T20:45:55.915Z,52.40
2022-12-03T20:48:26.043Z,11.60
2022-12-03T20:50:52.576Z,12.60
2022-12-03T20:53:24.734Z,5.80
2022-12-03T20:55:58.463Z,4.20
2022-12-03T20:58:24.937Z,2.75
2022-12-03T21:00:51.417Z,6.00
2022-12-03T21:03:17.889Z,6.50
2022-12-03T21:05:44.294Z,10.00
2022-12-03T21:08:11.017Z,13.80
2022-12-03T21:10:44.850Z,13.75
2022-12-03T21:13:15.176Z,10.80
2022-12-03T21:15:42.315Z,13.40
2022-12-03T21:18:10.275Z,15.00
2022-12-03T21:20:40.342Z,15.00
2022-12-03T21:23:06.787Z,10.00
2022-12-03T21:25:33.992Z,7.60
2022-12-03T21:28:00.428Z,10.20
2022-12-03T21:30:26.992Z,10.00
2022-12-03T21:32:53.460Z,10.25
2022-12-03T21:35:19.888Z,48.20
2022-12-03T21:37:46.437Z,167.75
2022-12-03T21:40:13.003Z,44.75
2022-12-03T21:42:39.441Z,40.80
2022-12-03T21:45:06.281Z,19.00
2022-12-03T21:47:37.344Z,15.00
2022-12-03T21:50:05.744Z,16.00
2022-12-03T21:52:33.278Z,51.25
2022-12-03T21:54:59.779Z,56.25
2022-12-03T21:57:26.189Z,52.00
2022-12-03T21:59:52.825Z,84.75
2022-12-03T22:02:19.613Z,52.40
2022-12-03T22:04:49.517Z,52.00
2022-12-03T22:07:15.991Z,50.00
2022-12-03T22:09:42.420Z,42.50
2022-12-03T22:12:08.867Z,55.00
2022-12-03T22:14:35.345Z,49.50
2022-12-03T22:17:01.931Z,35.25
2022-12-03T22:19:28.424Z,19.00
2022-12-03T22:21:54.844Z,20.75
2022-12-03T22:24:21.515Z,14.25
2022-12-03T22:26:47.943Z,18.25
2022-12-03T22:29:14.937Z,19.40
2022-12-03T22:31:41.432Z,17.40
2022-12-03T22:34:07.918Z,15.00
2022-12-03T22:36:34.416Z,15.40
2022-12-03T22:39:00.840Z,13.40
2022-12-03T22:41:27.250Z,11.60
2022-12-03T22:43:53.696Z,12.25
2022-12-03T22:46:20.161Z,20.00
2022-12-03T22:48:47.157Z,14.50
2022-12-03T22:51:20.512Z,14.20
2022-12-03T22:53:47.295Z,18.40
2022-12-03T22:56:13.815Z,16.00
2022-12-03T22:58:41.359Z,16.67
2022-12-03T23:01:08.073Z,15.80
2022-12-03T23:03:35.043Z,20.25
2022-12-03T23:06:01.646Z,19.00
2022-12-03T23:08:28.050Z,22.00
2022-12-03T23:10:54.460Z,24.00
2022-12-03T23:13:21.235Z,26.40
2022-12-03T23:15:48.808Z,22.00
2022-12-03T23:18:15.708Z,20.00
2022-12-03T23:20:46.009Z,17.80
2022-12-03T23:23:12.791Z,19.00
2022-12-03T23:25:39.298Z,22.25
2022-12-03T23:28:05.992Z,21.20
2022-12-03T23:30:35.150Z,22.40
2022-12-03T23:33:01.612Z,29.25
2022-12-03T23:35:28.127Z,21.60
2022-12-03T23:37:54.610Z,26.50
2022-12-03T23:40:21.126Z,22.50
2022-12-03T23:42:47.546Z,26.75
2022-12-03T23:45:13.961Z,30.40
2022-12-03T23:47:40.425Z,29.00
2022-12-03T23:50:07.239Z,38.20
2022-12-03T23:52:35.370Z,37.00
2022-12-03T23:55:01.902Z,29.75
2022-12-03T23:57:28.451Z,29.50
2022-12-03T23:59:55.059Z,26.80
